createdAt,value
2022-10-18T00:03:11.873Z,5.5
2022-10-18T00:10:44.145Z,5.5
2022-10-18T00:18:16.400Z,5.5
2022-10-18T00:25:48.679Z,5.5
2022-10-18T00:33:20.973Z,4.8
2022-10-18T00:40:53.240Z,4.8
2022-10-18T00:48:25.505Z,4.8
2022-10-18T00:55:57.759Z,4.8
2022-10-18T01:03:30.031Z,4.8
2022-10-18T01:11:02.301Z,4.8
2022-10-18T01:18:34.575Z,4.8
2022-10-18T01:26:06.831Z,4.8
2022-10-18T01:33:39.101Z,4.0
2022-10-18T01:41:14.742Z,4.0
2022-10-18T01:48:48.125Z,4.0
2022-10-18T01:56:20.409Z,4.0
2022-10-18T02:03:52.687Z,4.0
2022-10-18T02:11:24.955Z,4.0
2022-10-18T02:18:57.224Z,4.0
2022-10-18T02:26:29.485Z,4.0
2022-10-18T02:34:01.755Z,3.7
2022-10-18T02:41:34.040Z,3.7
2022-10-18T02:49:06.305Z,3.7
2022-10-18T02:56:38.574Z,3.7
2022-10-18T03:04:10.833Z,3.7
2022-10-18T03:11:43.155Z,3.7
2022-10-18T03:19:15.425Z,3.7
2022-10-18T03:26:47.895Z,3.7
2022-10-18T03:34:20.151Z,3.7
2022-10-18T03:41:52.417Z,3.7
2022-10-18T03:49:24.904Z,3.7
2022-10-18T03:56:57.209Z,3.7
2022-10-18T04:04:29.480Z,3.7
2022-10-18T04:12:01.748Z,3.7
2022-10-18T04:19:34.033Z,3.7
2022-10-18T04:27:06.314Z,3.6
2022-10-18T04:35:16.000Z,3.6
2022-10-18T04:36:03.303Z,3.6
2022-10-18T04:36:50.570Z,3.6
2022-10-18T04:37:37.841Z,3.6
2022-10-18T04:38:25.151Z,3.6
2022-10-18T04:39:12.421Z,3.6
2022-10-18T04:39:59.686Z,3.6
2022-10-18T04:40:47.002Z,3.6
2022-10-18T04:41:34.264Z,3.6
2022-10-18T04:42:21.556Z,3.6
2022-10-18T04:43:08.838Z,3.6
2022-10-18T04:43:56.104Z,3.6
2022-10-18T04:44:43.386Z,3.6
2022-10-18T04:45:30.673Z,3.6
2022-10-18T04:46:18.036Z,3.6
2022-10-18T04:47:05.313Z,3.6
2022-10-18T04:47:52.607Z,3.6
2022-10-18T04:48:39.863Z,3.6
2022-10-18T04:49:27.132Z,3.6
2022-10-18T04:50:14.431Z,3.6
2022-10-18T04:51:01.704Z,3.6
2022-10-18T04:51:49.013Z,3.6
2022-10-18T04:52:36.328Z,3.6
2022-10-18T04:53:23.625Z,3.6
2022-10-18T04:54:10.882Z,3.6
2022-10-18T04:54:58.185Z,3.6
2022-10-18T04:55:45.444Z,3.6
2022-10-18T04:56:32.700Z,3.6
2022-10-18T04:57:20.012Z,3.6
2022-10-18T04:58:07.273Z,3.6
2022-10-18T04:58:54.539Z,3.6
2022-10-18T04:59:42.306Z,3.6
2022-10-18T05:00:29.845Z,3.6
2022-10-18T05:01:17.170Z,3.6
2022-10-18T05:02:56.663Z,3.6
2022-10-18T05:03:44.069Z,3.6
2022-10-18T05:04:31.640Z,3.6
2022-10-18T05:05:18.917Z,3.6
2022-10-18T05:06:06.355Z,3.6
2022-10-18T05:06:53.614Z,3.6
2022-10-18T05:07:40.924Z,3.6
2022-10-18T05:08:28.306Z,3.6
2022-10-18T05:09:15.580Z,3.6
2022-10-18T05:10:02.948Z,3.6
2022-10-18T05:10:50.289Z,3.6
2022-10-18T05:11:37.543Z,3.6
2022-10-18T05:12:24.799Z,3.6
2022-10-18T05:13:12.700Z,3.6
2022-10-18T05:14:00.238Z,3.6
2022-10-18T05:14:47.503Z,3.6
2022-10-18T05:15:34.768Z,3.6
2022-10-18T05:16:22.066Z,3.6
2022-10-18T05:17:09.337Z,3.6
2022-10-18T05:17:56.601Z,3.6
2022-10-18T05:18:44.153Z,3.6
2022-10-18T05:19:31.586Z,3.6
2022-10-18T05:20:18.864Z,4.7
2022-10-18T05:21:06.278Z,4.7
2022-10-18T05:21:53.584Z,4.7
2022-10-18T05:22:40.861Z,4.7
2022-10-18T05:23:28.288Z,4.7
2022-10-18T05:24:15.557Z,4.7
2022-10-18T05:25:02.816Z,4.7
2022-10-18T05:25:50.259Z,4.7
2022-10-18T05:26:37.524Z,4.7
2022-10-18T05:27:24.792Z,4.7
2022-10-18T05:28:34.743Z,4.7
2022-10-18T05:29:09.600Z,4.7
2022-10-18T05:29:58.877Z,4.7
2022-10-18T05:30:48.579Z,4.7
2022-10-18T05:31:35.922Z,4.7
2022-10-18T05:32:23.197Z,4.7
2022-10-18T05:33:10.471Z,4.7
2022-10-18T05:33:57.851Z,4.7
2022-10-18T05:34:45.135Z,4.7
2022-10-18T05:35:32.543Z,4.7
2022-10-18T05:36:19.824Z,4.7
2022-10-18T05:37:07.237Z,4.7
2022-10-18T05:37:54.523Z,4.7
2022-10-18T05:38:42.174Z,4.7
2022-10-18T05:39:29.969Z,4.7
2022-10-18T05:40:17.232Z,4.7
2022-10-18T05:41:04.506Z,4.7
2022-10-18T05:41:51.808Z,4.7
2022-10-18T05:42:39.095Z,4.7
2022-10-18T05:43:26.360Z,4.7
2022-10-18T05:44:13.802Z,4.7
2022-10-18T05:45:01.079Z,4.7
2022-10-18T05:45:48.345Z,4.7
2022-10-18T05:46:35.771Z,4.7
2022-10-18T05:47:23.111Z,4.7
2022-10-18T05:48:10.408Z,4.7
2022-10-18T05:48:57.831Z,4.7
2022-10-18T05:49:45.088Z,4.7
2022-10-18T05:50:36.623Z,4.7
2022-10-18T05:51:26.855Z,4.7
2022-10-18T05:52:14.243Z,4.7
2022-10-18T05:53:12.129Z,4.7
2022-10-18T05:53:58.759Z,4.7
2022-10-18T05:54:46.172Z,4.7
2022-10-18T05:55:33.432Z,4.7
2022-10-18T05:56:20.705Z,4.7
2022-10-18T05:57:08.132Z,4.7
2022-10-18T05:57:55.576Z,4.7
2022-10-18T05:58:42.863Z,4.7
2022-10-18T05:59:30.259Z,4.7
2022-10-18T06:00:17.525Z,4.7
2022-10-18T06:01:04.793Z,4.7
2022-10-18T06:01:52.233Z,4.7
2022-10-18T06:02:39.568Z,4.7
2022-10-18T06:03:26.895Z,4.7
2022-10-18T06:04:14.314Z,4.7
2022-10-18T06:05:01.623Z,4.7
2022-10-18T06:05:48.936Z,4.7
2022-10-18T06:06:36.334Z,4.7
2022-10-18T06:07:23.636Z,4.7
2022-10-18T06:08:10.908Z,4.7
2022-10-18T06:08:58.338Z,4.7
2022-10-18T06:09:45.605Z,4.7
2022-10-18T06:10:32.871Z,4.7
2022-10-18T06:11:20.310Z,4.7
2022-10-18T06:12:07.631Z,4.7
2022-10-18T06:12:54.920Z,4.7
2022-10-18T06:13:42.339Z,4.7
2022-10-18T06:14:29.620Z,4.7
2022-10-18T06:15:16.916Z,4.7
2022-10-18T06:16:04.312Z,4.7
2022-10-18T06:16:51.609Z,4.7
2022-10-18T06:17:39.109Z,4.7
2022-10-18T06:18:26.616Z,4.7
2022-10-18T06:19:13.906Z,4.7
2022-10-18T06:20:01.180Z,6.8
2022-10-18T06:20:48.611Z,6.8
2022-10-18T06:21:35.877Z,6.8
2022-10-18T06:22:23.157Z,6.8
2022-10-18T06:23:10.598Z,6.8
2022-10-18T06:23:57.871Z,6.8
2022-10-18T06:24:45.140Z,6.8
2022-10-18T06:25:32.565Z,6.8
2022-10-18T06:26:19.852Z,6.8
2022-10-18T06:27:07.133Z,6.8
2022-10-18T06:27:54.553Z,6.8
2022-10-18T06:28:41.891Z,6.8
2022-10-18T06:29:29.243Z,6.8
2022-10-18T06:30:16.609Z,6.8
2022-10-18T06:31:03.892Z,6.8
2022-10-18T06:31:51.344Z,6.8
2022-10-18T06:32:38.608Z,6.8
2022-10-18T06:33:25.890Z,6.8
2022-10-18T06:34:13.185Z,6.8
2022-10-18T06:35:00.563Z,6.8
2022-10-18T06:35:47.833Z,6.8
2022-10-18T06:36:35.100Z,6.8
2022-10-18T06:37:22.557Z,6.8
2022-10-18T06:38:09.823Z,6.8
2022-10-18T06:38:57.106Z,6.8
2022-10-18T06:39:44.488Z,6.8
2022-10-18T06:40:31.770Z,6.8
2022-10-18T06:41:19.093Z,6.8
2022-10-18T06:42:06.482Z,6.8
2022-10-18T06:43:00.226Z,6.8
2022-10-18T06:43:48.025Z,6.8
2022-10-18T06:44:35.408Z,6.8
2022-10-18T06:45:22.693Z,6.8
2022-10-18T06:46:10.216Z,6.8
2022-10-18T06:46:57.504Z,6.8
2022-10-18T06:47:44.781Z,6.8
2022-10-18T06:48:32.071Z,6.8
2022-10-18T06:49:19.518Z,6.8
2022-10-18T06:50:06.811Z,6.8
2022-10-18T06:50:54.086Z,6.8
2022-10-18T06:51:41.525Z,6.8
2022-10-18T06:52:29.215Z,6.8
2022-10-18T06:53:16.591Z,6.8
2022-10-18T06:54:17.310Z,6.8
2022-10-18T06:55:02.177Z,6.8
2022-10-18T06:56:37.936Z,6.8
2022-10-18T06:57:25.248Z,6.8
2022-10-18T06:58:12.531Z,6.8
2022-10-18T06:58:59.931Z,6.8
2022-10-18T06:59:47.225Z,6.8
2022-10-18T07:00:34.501Z,6.8
2022-10-18T07:01:21.911Z,6.8
2022-10-18T07:02:09.274Z,6.8
2022-10-18T07:02:56.569Z,6.8
2022-10-18T07:03:43.977Z,6.8
2022-10-18T07:04:31.248Z,6.8
2022-10-18T07:05:18.537Z,6.8
2022-10-18T07:06:05.932Z,6.8
2022-10-18T07:06:53.407Z,6.8
2022-10-18T07:07:40.680Z,6.8
2022-10-18T07:08:28.091Z,6.8
2022-10-18T07:09:15.518Z,6.8
2022-10-18T07:10:02.822Z,6.8
2022-10-18T07:10:50.273Z,6.8
2022-10-18T07:11:37.549Z,6.8
2022-10-18T07:12:24.850Z,6.8
2022-10-18T07:13:31.352Z,6.8
2022-10-18T07:14:16.325Z,6.8
2022-10-18T07:15:08.962Z,6.8
2022-10-18T07:15:56.706Z,6.8
2022-10-18T07:16:44.122Z,6.8
2022-10-18T07:17:31.750Z,6.8
2022-10-18T07:18:19.232Z,6.8
2022-10-18T07:19:06.669Z,6.8
2022-10-18T07:19:54.027Z,7.2
2022-10-18T07:20:41.296Z,7.2
2022-10-18T07:21:28.742Z,7.2
2022-10-18T07:22:16.024Z,7.2
2022-10-18T07:23:03.300Z,7.2
2022-10-18T07:23:50.748Z,7.2
2022-10-18T07:24:38.019Z,7.2
2022-10-18T07:25:28.398Z,7.2
2022-10-18T07:26:17.781Z,7.2
2022-10-18T07:27:05.195Z,7.2
2022-10-18T07:27:52.500Z,7.2
2022-10-18T07:28:39.861Z,7.2
2022-10-18T07:29:27.360Z,7.2
2022-10-18T07:30:14.627Z,7.2
2022-10-18T07:31:05.164Z,7.2
2022-10-18T07:31:53.552Z,7.2
2022-10-18T07:32:40.961Z,7.2
2022-10-18T07:33:28.244Z,7.2
2022-10-18T07:34:15.549Z,7.2
2022-10-18T07:35:02.954Z,7.2
2022-10-18T07:35:50.268Z,7.2
2022-10-18T07:36:37.565Z,7.2
2022-10-18T07:37:27.857Z,7.2
2022-10-18T07:38:17.439Z,7.2
2022-10-18T07:39:04.755Z,7.2
2022-10-18T07:39:52.025Z,7.2
2022-10-18T07:40:39.298Z,7.2
2022-10-18T07:41:26.690Z,7.2
2022-10-18T07:42:13.980Z,7.2
2022-10-18T07:43:04.613Z,7.2
2022-10-18T07:43:52.315Z,7.2
2022-10-18T07:44:39.711Z,7.2
2022-10-18T07:45:27.077Z,7.2
2022-10-18T07:46:14.389Z,7.2
2022-10-18T07:47:01.792Z,7.2
2022-10-18T07:47:49.073Z,7.2
2022-10-18T07:48:36.345Z,7.2
2022-10-18T07:49:23.753Z,7.2
2022-10-18T07:50:11.026Z,7.2
2022-10-18T07:50:58.290Z,7.2
2022-10-18T07:51:45.696Z,7.2
2022-10-18T07:52:33.000Z,7.2
2022-10-18T07:53:20.264Z,7.2
2022-10-18T07:54:08.096Z,7.2
2022-10-18T07:54:55.432Z,7.2
2022-10-18T07:55:42.746Z,7.2
2022-10-18T07:56:30.051Z,7.2
2022-10-18T07:57:17.339Z,7.2
2022-10-18T07:58:04.610Z,7.2
2022-10-18T07:58:51.953Z,7.2
2022-10-18T07:59:39.230Z,7.2
2022-10-18T08:00:26.508Z,7.2
2022-10-18T08:01:13.914Z,7.2
2022-10-18T08:02:01.354Z,7.2
2022-10-18T08:02:48.719Z,7.2
2022-10-18T08:03:36.013Z,7.2
2022-10-18T08:04:23.319Z,7.2
2022-10-18T08:05:10.599Z,7.2
2022-10-18T08:05:57.940Z,7.2
2022-10-18T08:06:45.208Z,7.2
2022-10-18T08:07:32.727Z,7.2
2022-10-18T08:08:20.199Z,7.2
2022-10-18T08:09:07.634Z,7.2
2022-10-18T08:09:55.012Z,7.2
2022-10-18T08:10:42.326Z,7.2
2022-10-18T08:11:29.634Z,7.2
2022-10-18T08:12:16.927Z,7.2
2022-10-18T08:13:04.221Z,7.2
2022-10-18T08:13:51.508Z,7.2
2022-10-18T08:14:38.788Z,7.2
2022-10-18T08:15:26.062Z,7.2
2022-10-18T08:16:13.352Z,7.2
2022-10-18T08:17:01.226Z,7.2
2022-10-18T08:17:48.575Z,7.2
2022-10-18T08:18:36.118Z,7.2
2022-10-18T08:19:23.408Z,7.2
2022-10-18T08:20:26.099Z,7.8
2022-10-18T08:21:07.920Z,7.8
2022-10-18T08:21:55.374Z,7.8
2022-10-18T08:22:42.647Z,7.8
2022-10-18T08:23:29.923Z,7.8
2022-10-18T08:24:17.342Z,7.8
2022-10-18T08:25:04.648Z,7.8
2022-10-18T08:25:51.977Z,7.8
2022-10-18T08:26:39.358Z,7.8
2022-10-18T08:27:26.655Z,7.8
2022-10-18T08:28:13.934Z,7.8
2022-10-18T08:29:21.155Z,7.8
2022-10-18T08:29:58.751Z,7.8
2022-10-18T08:30:46.089Z,7.8
2022-10-18T08:31:33.449Z,7.8
2022-10-18T08:32:20.748Z,7.8
2022-10-18T08:33:08.113Z,7.8
2022-10-18T08:33:55.409Z,7.8
2022-10-18T08:34:42.694Z,7.8
2022-10-18T08:35:30.106Z,7.8
2022-10-18T08:36:17.531Z,7.8
2022-10-18T08:37:04.809Z,7.8
2022-10-18T08:37:52.226Z,7.8
2022-10-18T08:38:39.500Z,7.8
2022-10-18T08:39:26.887Z,7.8
2022-10-18T08:40:14.198Z,7.8
2022-10-18T08:41:01.503Z,7.8
2022-10-18T08:41:48.932Z,7.8
2022-10-18T08:42:36.206Z,7.8
2022-10-18T08:43:23.578Z,7.8
2022-10-18T08:44:10.928Z,7.8
2022-10-18T08:44:58.353Z,7.8
2022-10-18T08:45:46.380Z,7.8
2022-10-18T08:46:33.670Z,7.8
2022-10-18T08:47:20.989Z,7.8
2022-10-18T08:48:08.927Z,7.8
2022-10-18T08:48:56.398Z,7.8
2022-10-18T08:49:46.772Z,7.8
2022-10-18T08:50:34.647Z,7.8
2022-10-18T08:51:22.557Z,7.8
2022-10-18T08:52:10.186Z,7.8
2022-10-18T08:52:57.509Z,7.8
2022-10-18T08:53:44.810Z,7.8
2022-10-18T08:54:32.197Z,7.8
2022-10-18T08:55:19.912Z,7.8
2022-10-18T08:56:07.185Z,7.8
2022-10-18T08:56:54.592Z,7.8
2022-10-18T08:57:41.903Z,7.8
2022-10-18T08:58:29.208Z,7.8
2022-10-18T08:59:16.653Z,7.8
2022-10-18T09:00:03.969Z,7.8
2022-10-18T09:00:51.266Z,7.8
2022-10-18T09:01:38.734Z,7.8
2022-10-18T09:02:26.077Z,7.8
2022-10-18T09:03:13.394Z,7.8
2022-10-18T09:04:00.760Z,7.8
2022-10-18T09:04:48.049Z,7.8
2022-10-18T09:05:35.329Z,7.8
2022-10-18T09:06:23.602Z,7.8
2022-10-18T09:07:11.051Z,7.8
2022-10-18T09:07:58.331Z,7.8
2022-10-18T09:08:45.600Z,7.8
2022-10-18T09:09:33.042Z,7.8
2022-10-18T09:10:20.430Z,7.8
2022-10-18T09:11:07.719Z,7.8
2022-10-18T09:11:58.068Z,7.8
2022-10-18T09:12:48.431Z,7.8
2022-10-18T09:13:35.835Z,7.8
2022-10-18T09:14:23.141Z,7.8
2022-10-18T09:15:10.405Z,7.8
2022-10-18T09:15:57.948Z,7.8
2022-10-18T09:16:45.269Z,7.8
2022-10-18T09:17:32.549Z,7.8
2022-10-18T09:18:20.021Z,7.8
2022-10-18T09:19:07.356Z,7.8
2022-10-18T09:19:54.669Z,9.0
2022-10-18T09:20:42.019Z,9.0
2022-10-18T09:21:29.355Z,9.0
2022-10-18T09:22:16.673Z,9.0
2022-10-18T09:23:04.023Z,9.0
2022-10-18T09:23:51.310Z,9.0
2022-10-18T09:24:38.592Z,9.0
2022-10-18T09:25:26.012Z,9.0
2022-10-18T09:26:13.309Z,9.0
2022-10-18T09:27:00.590Z,9.0
2022-10-18T09:27:48.005Z,9.0
2022-10-18T09:28:35.368Z,9.0
2022-10-18T09:29:22.695Z,9.0
2022-10-18T09:30:10.120Z,9.0
2022-10-18T09:30:59.519Z,9.0
2022-10-18T09:31:47.128Z,9.0
2022-10-18T09:32:35.080Z,9.0
2022-10-18T09:33:22.715Z,9.0
2022-10-18T09:34:09.995Z,9.0
2022-10-18T09:34:57.292Z,9.0
2022-10-18T09:35:44.702Z,9.0
2022-10-18T09:36:31.982Z,9.0
2022-10-18T09:37:19.281Z,9.0
2022-10-18T09:38:06.808Z,9.0
2022-10-18T09:38:56.116Z,9.0
2022-10-18T09:39:45.900Z,9.0
2022-10-18T09:40:33.343Z,9.0
2022-10-18T09:41:20.620Z,9.0
2022-10-18T09:42:07.906Z,9.0
2022-10-18T09:42:55.305Z,9.0
2022-10-18T09:43:42.575Z,9.0
2022-10-18T09:44:29.856Z,9.0
2022-10-18T09:45:17.310Z,9.0
2022-10-18T09:46:04.618Z,9.0
2022-10-18T09:46:51.896Z,9.0
2022-10-18T09:47:39.289Z,9.0
2022-10-18T09:48:26.597Z,9.0
2022-10-18T09:49:15.691Z,9.0
2022-10-18T09:50:03.718Z,9.0
2022-10-18T09:50:51.161Z,9.0
2022-10-18T09:51:38.445Z,9.0
2022-10-18T09:52:25.768Z,9.0
2022-10-18T09:53:13.181Z,9.0
2022-10-18T09:54:00.481Z,9.0
2022-10-18T09:54:47.741Z,9.0
2022-10-18T09:55:35.193Z,9.0
2022-10-18T09:56:22.501Z,9.0
2022-10-18T09:57:09.780Z,9.0
2022-10-18T09:57:57.210Z,9.0
2022-10-18T09:58:44.478Z,9.0
2022-10-18T09:59:31.772Z,9.0
2022-10-18T10:00:19.172Z,9.0
2022-10-18T10:01:06.450Z,9.0
2022-10-18T10:01:54.441Z,9.0
2022-10-18T10:02:41.810Z,9.0
2022-10-18T10:03:29.143Z,9.0
2022-10-18T10:04:16.603Z,9.0
2022-10-18T10:05:03.911Z,9.0
2022-10-18T10:05:51.263Z,9.0
2022-10-18T10:06:38.532Z,9.0
2022-10-18T10:07:27.655Z,9.0
2022-10-18T10:08:17.180Z,9.0
2022-10-18T10:09:04.797Z,9.0
2022-10-18T10:09:52.068Z,9.0
2022-10-18T10:10:39.389Z,9.0
2022-10-18T10:11:26.741Z,9.0
2022-10-18T10:12:14.109Z,9.0
2022-10-18T10:13:01.482Z,9.0
2022-10-18T10:13:48.771Z,9.0
2022-10-18T10:14:36.305Z,9.0
2022-10-18T10:15:23.608Z,9.0
2022-10-18T10:16:11.062Z,9.0
2022-10-18T10:16:58.387Z,9.0
2022-10-18T10:17:45.659Z,9.0
2022-10-18T10:18:33.072Z,9.0
2022-10-18T10:19:20.344Z,9.0
2022-10-18T10:20:07.600Z,9.1
2022-10-18T10:20:55.022Z,9.1
2022-10-18T10:21:42.331Z,9.1
2022-10-18T10:22:29.613Z,9.1
2022-10-18T10:24:09.180Z,9.1
2022-10-18T10:24:56.481Z,9.1
2022-10-18T10:25:43.745Z,9.1
2022-10-18T10:26:31.020Z,9.1
2022-10-18T10:27:18.415Z,9.1
2022-10-18T10:28:05.690Z,9.1
2022-10-18T10:28:52.980Z,9.1
2022-10-18T10:29:44.382Z,9.1
2022-10-18T10:30:31.937Z,9.1
2022-10-18T10:31:19.410Z,9.1
2022-10-18T10:38:51.689Z,9.1
2022-10-18T10:46:23.978Z,9.1
2022-10-18T10:51:26.895Z,9.1
2022-10-18T10:52:27.022Z,9.1
2022-10-18T10:53:11.482Z,9.1
2022-10-18T10:53:58.909Z,9.1
2022-10-18T10:54:51.232Z,9.1
2022-10-18T10:55:39.290Z,9.1
2022-10-18T10:56:26.765Z,9.1
2022-10-18T10:57:14.110Z,9.1
2022-10-18T10:58:01.438Z,9.1
2022-10-18T10:58:48.870Z,9.1
2022-10-18T10:59:36.255Z,9.1
2022-10-18T11:00:23.622Z,9.1
2022-10-18T11:01:11.469Z,9.1
2022-10-18T11:01:58.980Z,9.1
2022-10-18T11:02:59.191Z,9.1
2022-10-18T11:03:43.885Z,9.1
2022-10-18T11:04:31.326Z,9.1
2022-10-18T11:05:18.632Z,9.1
2022-10-18T11:06:05.906Z,9.1
2022-10-18T11:06:53.353Z,9.1
2022-10-18T11:07:40.649Z,9.1
2022-10-18T11:08:27.918Z,9.1
2022-10-18T11:09:15.320Z,9.1
2022-10-18T11:10:02.579Z,9.1
2022-10-18T11:10:49.870Z,9.1
2022-10-18T11:11:37.267Z,9.1
2022-10-18T11:12:24.624Z,9.1
2022-10-18T11:13:11.900Z,9.1
2022-10-18T11:14:13.793Z,9.1
2022-10-18T11:14:56.590Z,9.1
2022-10-18T11:15:44.033Z,9.1
2022-10-18T11:16:31.373Z,9.1
2022-10-18T11:17:18.752Z,9.1
2022-10-18T11:18:06.110Z,9.1
2022-10-18T11:18:53.471Z,9.1
2022-10-18T11:19:40.866Z,9.1
2022-10-18T11:20:28.203Z,7.7
2022-10-18T11:21:15.488Z,7.7
2022-10-18T11:22:02.785Z,7.7
2022-10-18T11:22:50.187Z,7.7
2022-10-18T11:23:37.538Z,7.7
2022-10-18T11:24:24.819Z,7.7
2022-10-18T11:25:12.304Z,7.7
2022-10-18T11:25:59.627Z,7.7
2022-10-18T11:26:48.920Z,7.7
2022-10-18T11:27:40.686Z,7.7
2022-10-18T11:28:28.128Z,7.7
2022-10-18T11:29:15.426Z,7.7
2022-10-18T11:30:02.876Z,7.7
2022-10-18T11:30:50.150Z,7.7
2022-10-18T11:31:37.448Z,7.7
2022-10-18T11:32:24.761Z,7.7
2022-10-18T11:33:12.174Z,7.7
2022-10-18T11:34:14.825Z,7.7
2022-10-18T11:34:56.745Z,7.7
2022-10-18T11:35:44.120Z,7.7
2022-10-18T11:36:33.981Z,7.7
2022-10-18T11:37:39.194Z,7.7
2022-10-18T11:38:21.077Z,7.7
2022-10-18T11:39:08.499Z,7.7
2022-10-18T11:39:55.745Z,7.7
2022-10-18T11:40:43.027Z,7.7
2022-10-18T11:41:30.424Z,7.7
2022-10-18T11:42:17.911Z,7.7
2022-10-18T11:43:05.246Z,7.7
2022-10-18T11:44:02.230Z,7.7
2022-10-18T11:44:49.887Z,7.7
2022-10-18T11:45:37.379Z,7.7
2022-10-18T11:46:24.729Z,7.7
2022-10-18T11:47:12.198Z,7.7
2022-10-18T11:47:59.465Z,7.7
2022-10-18T11:48:46.784Z,7.7
2022-10-18T11:49:34.055Z,7.7
2022-10-18T11:50:21.472Z,7.7
2022-10-18T11:51:08.755Z,7.7
2022-10-18T11:52:07.943Z,7.7
2022-10-18T11:52:53.280Z,7.7
2022-10-18T11:53:40.681Z,7.7
2022-10-18T11:54:27.973Z,7.7
2022-10-18T11:55:15.301Z,7.7
2022-10-18T11:56:02.706Z,7.7
2022-10-18T11:56:49.995Z,7.7
2022-10-18T11:57:37.264Z,7.7
2022-10-18T11:58:24.676Z,7.7
2022-10-18T11:59:11.953Z,7.7
2022-10-18T11:59:59.233Z,7.7
2022-10-18T12:00:46.665Z,7.7
2022-10-18T12:01:34.023Z,7.7
2022-10-18T12:02:21.327Z,7.7
2022-10-18T12:03:08.781Z,7.7
2022-10-18T12:03:56.177Z,7.7
2022-10-18T12:04:53.056Z,7.7
2022-10-18T12:05:40.696Z,7.7
2022-10-18T12:06:28.129Z,7.7
2022-10-18T12:07:15.447Z,7.7
2022-10-18T12:08:02.721Z,7.7
2022-10-18T12:08:50.143Z,7.7
2022-10-18T12:09:37.463Z,7.7
2022-10-18T12:10:37.760Z,7.7
2022-10-18T12:11:22.072Z,7.7
2022-10-18T12:12:09.660Z,7.7
2022-10-18T12:12:56.919Z,7.7
2022-10-18T12:13:44.261Z,7.7
2022-10-18T12:14:31.589Z,7.7
2022-10-18T12:15:18.882Z,7.7
2022-10-18T12:16:06.148Z,7.7
2022-10-18T12:17:07.720Z,7.7
2022-10-18T12:17:50.791Z,7.7
2022-10-18T12:18:38.251Z,7.7
2022-10-18T12:19:27.023Z,7.7
2022-10-18T12:21:02.388Z,7.7
2022-10-18T12:21:49.897Z,7.7
2022-10-18T12:22:37.177Z,7.7
2022-10-18T12:23:24.472Z,7.7
2022-10-18T12:24:11.732Z,7.7
2022-10-18T12:24:59.012Z,7.7
2022-10-18T12:25:46.345Z,7.7
2022-10-18T12:26:33.706Z,7.7
2022-10-18T12:27:21.145Z,7.7
2022-10-18T12:28:08.559Z,7.7
2022-10-18T12:28:55.857Z,7.7
2022-10-18T12:29:45.444Z,7.7
2022-10-18T12:30:35.281Z,7.7
2022-10-18T12:31:22.670Z,7.7
2022-10-18T12:32:09.942Z,7.7
2022-10-18T12:33:03.655Z,7.7
2022-10-18T12:33:54.685Z,7.7
2022-10-18T12:34:41.953Z,7.7
2022-10-18T12:35:29.428Z,7.7
2022-10-18T12:36:16.725Z,7.7
2022-10-18T12:37:56.305Z,7.7
2022-10-18T12:38:43.602Z,7.7
2022-10-18T12:39:43.500Z,7.7
2022-10-18T12:40:28.133Z,7.7
2022-10-18T12:41:15.606Z,7.7
2022-10-18T12:42:02.872Z,7.7
2022-10-18T12:42:50.146Z,7.7
2022-10-18T12:43:37.536Z,7.7
2022-10-18T12:44:25.245Z,7.7
2022-10-18T12:45:12.528Z,7.7
2022-10-18T12:45:59.928Z,7.7
2022-10-18T12:46:47.408Z,7.7
2022-10-18T12:47:35.311Z,7.7
2022-10-18T12:48:22.848Z,7.7
2022-10-18T12:49:10.336Z,7.7
2022-10-18T12:49:57.618Z,7.7
2022-10-18T12:50:44.880Z,7.7
2022-10-18T12:51:32.305Z,7.7
2022-10-18T12:52:19.582Z,7.7
2022-10-18T12:53:06.849Z,7.7
2022-10-18T12:53:54.354Z,7.7
2022-10-18T12:54:41.631Z,7.7
2022-10-18T12:55:28.986Z,7.7
2022-10-18T12:56:16.322Z,7.7
2022-10-18T12:57:03.596Z,7.7
2022-10-18T12:57:50.864Z,7.7
2022-10-18T12:58:38.518Z,7.7
2022-10-18T12:59:25.948Z,7.7
2022-10-18T13:00:13.204Z,7.7
2022-10-18T13:01:00.648Z,7.7
2022-10-18T13:01:47.967Z,7.7
2022-10-18T13:02:35.571Z,7.7
2022-10-18T13:03:23.178Z,7.7
2022-10-18T13:04:10.707Z,7.7
2022-10-18T13:05:52.846Z,7.7
2022-10-18T13:06:41.030Z,7.7
2022-10-18T13:07:28.433Z,7.7
2022-10-18T13:08:15.734Z,7.7
2022-10-18T13:09:03.309Z,7.7
2022-10-18T13:09:50.648Z,7.7
2022-10-18T13:10:37.921Z,7.7
2022-10-18T13:11:25.186Z,7.7
2022-10-18T13:12:12.630Z,7.7
2022-10-18T13:12:59.896Z,7.7
2022-10-18T13:13:47.165Z,7.7
2022-10-18T13:14:34.603Z,7.7
2022-10-18T13:15:25.872Z,7.7
2022-10-18T13:16:14.990Z,7.7
2022-10-18T13:17:02.356Z,7.7
2022-10-18T13:17:50.224Z,7.7
2022-10-18T13:18:37.533Z,7.7
2022-10-18T13:19:24.969Z,7.7
2022-10-18T13:20:25.670Z,7.7
2022-10-18T13:21:09.714Z,7.7
2022-10-18T13:21:57.410Z,7.7
2022-10-18T13:22:44.711Z,7.7
2022-10-18T13:23:34.033Z,7.7
2022-10-18T13:24:24.362Z,7.7
2022-10-18T13:25:11.770Z,7.7
2022-10-18T13:25:59.040Z,7.7
2022-10-18T13:26:46.314Z,7.7
2022-10-18T13:27:36.214Z,7.7
2022-10-18T13:28:24.093Z,7.7
2022-10-18T13:29:11.513Z,7.7
2022-10-18T13:29:58.829Z,7.7
2022-10-18T13:30:46.692Z,7.7
2022-10-18T13:31:33.973Z,7.7
2022-10-18T13:32:21.439Z,7.7
2022-10-18T13:33:08.718Z,7.7
2022-10-18T13:33:55.984Z,7.7
2022-10-18T13:34:43.324Z,7.7
2022-10-18T13:35:30.645Z,7.7
2022-10-18T13:36:22.702Z,7.7
2022-10-18T13:37:10.849Z,7.7
2022-10-18T13:37:58.232Z,7.7
2022-10-18T13:38:45.526Z,7.7
2022-10-18T13:39:32.853Z,7.7
2022-10-18T13:40:20.212Z,7.7
2022-10-18T13:41:07.568Z,7.7
2022-10-18T13:41:57.892Z,7.7
2022-10-18T13:42:45.360Z,7.7
2022-10-18T13:43:32.741Z,7.7
2022-10-18T13:44:20.018Z,7.7
2022-10-18T13:45:07.416Z,7.7
2022-10-18T13:45:54.711Z,7.7
2022-10-18T13:46:41.971Z,7.7
2022-10-18T13:47:29.232Z,7.7
2022-10-18T13:48:16.677Z,7.7
2022-10-18T13:49:03.959Z,7.7
2022-10-18T13:49:53.063Z,7.7
2022-10-18T13:50:42.145Z,7.7
2022-10-18T13:51:29.540Z,7.7
2022-10-18T13:52:16.809Z,7.7
2022-10-18T13:53:04.081Z,7.7
2022-10-18T13:53:51.516Z,7.7
2022-10-18T13:54:38.785Z,7.7
2022-10-18T13:55:26.057Z,7.7
2022-10-18T13:56:13.468Z,7.7
2022-10-18T13:57:00.763Z,7.7
2022-10-18T13:57:48.045Z,7.7
2022-10-18T13:58:35.814Z,7.7
2022-10-18T13:59:23.279Z,7.7
2022-10-18T14:00:10.618Z,7.7
2022-10-18T14:00:57.939Z,7.7
2022-10-18T14:01:46.572Z,7.7
2022-10-18T14:02:51.042Z,7.7
2022-10-18T14:04:31.300Z,7.7
2022-10-18T14:05:25.112Z,7.7
2022-10-18T14:06:12.593Z,7.7
2022-10-18T14:07:02.156Z,7.7
2022-10-18T14:07:49.976Z,7.7
2022-10-18T14:08:37.476Z,7.7
2022-10-18T14:09:43.377Z,7.7
2022-10-18T14:10:26.796Z,7.7
2022-10-18T14:11:19.393Z,7.7
2022-10-18T14:12:06.790Z,7.7
2022-10-18T14:12:54.065Z,7.7
2022-10-18T14:13:41.381Z,7.7
2022-10-18T14:14:28.749Z,7.7
2022-10-18T14:15:16.042Z,7.7
2022-10-18T14:16:03.406Z,7.7
2022-10-18T14:16:50.712Z,7.7
2022-10-18T14:18:31.750Z,7.7
2022-10-18T14:19:19.310Z,7.7
2022-10-18T14:20:06.588Z,7.4
2022-10-18T14:21:12.397Z,7.4
2022-10-18T14:21:51.097Z,7.4
2022-10-18T14:22:38.508Z,7.4
2022-10-18T14:23:25.788Z,7.4
2022-10-18T14:24:13.064Z,7.4
2022-10-18T14:25:00.557Z,7.4
2022-10-18T14:25:47.901Z,7.4
2022-10-18T14:26:35.223Z,7.4
2022-10-18T14:27:22.591Z,7.4
2022-10-18T14:28:11.541Z,7.4
2022-10-18T14:29:00.589Z,7.4
2022-10-18T14:29:48.272Z,7.4
2022-10-18T14:30:35.641Z,7.4
2022-10-18T14:31:22.914Z,7.4
2022-10-18T14:32:10.191Z,7.4
2022-10-18T14:32:57.615Z,7.4
2022-10-18T14:33:44.892Z,7.4
2022-10-18T14:34:32.167Z,7.4
2022-10-18T14:35:34.813Z,7.4
2022-10-18T14:36:16.846Z,7.4
2022-10-18T14:37:04.255Z,7.4
2022-10-18T14:37:51.517Z,7.4
2022-10-18T14:38:38.783Z,7.4
2022-10-18T14:39:26.206Z,7.4
2022-10-18T14:40:13.477Z,7.4
2022-10-18T14:41:00.744Z,7.4
2022-10-18T14:41:48.383Z,7.4
2022-10-18T14:42:35.674Z,7.4
2022-10-18T14:43:22.962Z,7.4
2022-10-18T14:44:10.725Z,7.4
2022-10-18T14:44:58.112Z,7.4
2022-10-18T14:45:45.560Z,7.4
2022-10-18T14:46:32.834Z,7.4
2022-10-18T14:47:20.578Z,7.4
2022-10-18T14:48:07.862Z,7.4
2022-10-18T14:48:55.194Z,7.4
2022-10-18T14:49:42.490Z,7.4
2022-10-18T14:50:30.725Z,7.4
2022-10-18T14:51:18.286Z,7.4
2022-10-18T14:52:05.717Z,7.4
2022-10-18T14:52:53.080Z,7.4
2022-10-18T14:53:40.386Z,7.4
2022-10-18T14:54:30.809Z,7.4
2022-10-18T14:55:19.401Z,7.4
2022-10-18T14:56:06.704Z,7.4
2022-10-18T14:56:54.020Z,7.4
2022-10-18T14:57:41.318Z,7.4
2022-10-18T14:58:28.740Z,7.4
2022-10-18T14:59:16.037Z,7.4
2022-10-18T15:00:03.361Z,7.4
2022-10-18T15:00:50.805Z,7.4
2022-10-18T15:01:38.229Z,7.4
2022-10-18T15:02:25.601Z,7.4
2022-10-18T15:03:13.010Z,7.4
2022-10-18T15:04:00.312Z,7.4
2022-10-18T15:04:47.614Z,7.4
2022-10-18T15:05:35.026Z,7.4
2022-10-18T15:06:22.440Z,7.4
2022-10-18T15:07:09.741Z,7.4
2022-10-18T15:07:57.148Z,7.4
2022-10-18T15:08:44.456Z,7.4
2022-10-18T15:09:31.749Z,7.4
2022-10-18T15:10:19.172Z,7.4
2022-10-18T15:11:09.334Z,7.4
2022-10-18T15:18:44.275Z,7.4
2022-10-18T15:26:16.580Z,7.4
2022-10-18T15:33:48.884Z,5.9
2022-10-18T15:41:21.193Z,5.9
2022-10-18T15:48:53.636Z,5.9
2022-10-18T15:56:25.928Z,5.9
2022-10-18T16:03:58.232Z,5.9
2022-10-18T16:11:30.525Z,5.9
2022-10-18T16:19:02.829Z,5.9
2022-10-18T16:26:35.128Z,5.9
2022-10-18T16:34:07.430Z,4.6
2022-10-18T16:41:39.724Z,4.6
2022-10-18T16:49:12.040Z,4.6
2022-10-18T16:56:44.370Z,4.6
2022-10-18T17:04:16.691Z,4.6
2022-10-18T17:11:48.998Z,4.6
2022-10-18T17:19:21.334Z,4.6
2022-10-18T17:26:53.654Z,4.6
2022-10-18T17:34:25.940Z,4.6
2022-10-18T17:41:58.255Z,4.6
2022-10-18T17:49:30.559Z,4.6
2022-10-18T17:57:02.857Z,4.6
2022-10-18T18:04:35.173Z,4.6
2022-10-18T18:12:07.477Z,4.6